sensor_id;sensor_type;location;lat;lon;timestamp;P1;durP1;ratioP1;P2;durP2;ratioP2
21822;SDS011;11074;48.596;9.238;2023-07-16T00:01:35;5.85;;;3.30;;
21822;SDS011;11074;48.596;9.238;2023-07-16T00:04:01;5.93;;;3.05;;
21822;SDS011;11074;48.596;9.238;2023-07-16T00:06:27;8.55;;;3.33;;
21822;SDS011;11074;48.596;9.238;2023-07-16T00:08:52;3.30;;;2.53;;
21822;SDS011;11074;48.596;9.238;2023-07-16T00:11:18;5.05;;;2.30;;
21822;SDS011;11074;48.596;9.238;2023-07-16T00:13:45;3.78;;;2.00;;
21822;SDS011;11074;48.596;9.238;2023-07-16T00:16:13;4.00;;;1.40;;
21822;SDS011;11074;48.596;9.238;2023-07-16T00:18:41;3.55;;;1.50;;
21822;SDS011;11074;48.596;9.238;2023-07-16T00:21:10;4.32;;;1.60;;
21822;SDS011;11074;48.596;9.238;2023-07-16T00:23:35;2.53;;;1.20;;
21822;SDS011;11074;48.596;9.238;2023-07-16T00:26:01;2.65;;;1.60;;
21822;SDS011;11074;48.596;9.238;2023-07-16T00:28:27;3.20;;;1.20;;
21822;SDS011;11074;48.596;9.238;2023-07-16T00:30:54;3.20;;;1.50;;
21822;SDS011;11074;48.596;9.238;2023-07-16T00:33:20;3.08;;;1.42;;
21822;SDS011;11074;48.596;9.238;2023-07-16T00:35:46;3.90;;;1.67;;
21822;SDS011;11074;48.596;9.238;2023-07-16T00:38:14;3.25;;;1.50;;
21822;SDS011;11074;48.596;9.238;2023-07-16T00:40:40;2.90;;;1.48;;
21822;SDS011;11074;48.596;9.238;2023-07-16T00:43:08;3.78;;;1.90;;
21822;SDS011;11074;48.596;9.238;2023-07-16T00:45:33;2.95;;;1.70;;
21822;SDS011;11074;48.596;9.238;2023-07-16T00:47:59;3.65;;;1.30;;
21822;SDS011;11074;48.596;9.238;2023-07-16T00:50:25;5.28;;;1.48;;
21822;SDS011;11074;48.596;9.238;2023-07-16T00:52:51;3.45;;;1.70;;
21822;SDS011;11074;48.596;9.238;2023-07-16T00:55:16;2.97;;;1.70;;
21822;SDS011;11074;48.596;9.238;2023-07-16T00:57:42;3.83;;;1.50;;
21822;SDS011;11074;48.596;9.238;2023-07-16T01:00:10;3.72;;;1.73;;
21822;SDS011;11074;48.596;9.238;2023-07-16T01:02:36;4.57;;;1.80;;
21822;SDS011;11074;48.596;9.238;2023-07-16T01:05:02;5.40;;;1.50;;
21822;SDS011;11074;48.596;9.238;2023-07-16T01:07:28;2.55;;;1.50;;
21822;SDS011;11074;48.596;9.238;2023-07-16T01:09:56;5.50;;;1.60;;
21822;SDS011;11074;48.596;9.238;2023-07-16T01:12:23;3.70;;;1.90;;
21822;SDS011;11074;48.596;9.238;2023-07-16T01:14:51;2.75;;;1.70;;
21822;SDS011;11074;48.596;9.238;2023-07-16T01:17:17;2.72;;;1.50;;
21822;SDS011;11074;48.596;9.238;2023-07-16T01:19:43;2.60;;;1.55;;
21822;SDS011;11074;48.596;9.238;2023-07-16T01:22:28;2.35;;;1.33;;
21822;SDS011;11074;48.596;9.238;2023-07-16T01:30:52;2.08;;;1.40;;
21822;SDS011;11074;48.596;9.238;2023-07-16T01:33:23;2.70;;;1.42;;
21822;SDS011;11074;48.596;9.238;2023-07-16T01:35:49;4.13;;;1.30;;
21822;SDS011;11074;48.596;9.238;2023-07-16T01:38:17;2.60;;;1.42;;
21822;SDS011;11074;48.596;9.238;2023-07-16T01:40:45;3.92;;;1.27;;
21822;SDS011;11074;48.596;9.238;2023-07-16T01:43:12;2.92;;;1.10;;
21822;SDS011;11074;48.596;9.238;2023-07-16T01:45:38;2.63;;;1.42;;
21822;SDS011;11074;48.596;9.238;2023-07-16T01:48:13;2.13;;;1.30;;
21822;SDS011;11074;48.596;9.238;2023-07-16T01:50:57;2.85;;;1.70;;
21822;SDS011;11074;48.596;9.238;2023-07-16T01:53:23;1.13;;;1.00;;
21822;SDS011;11074;48.596;9.238;2023-07-16T01:55:48;3.22;;;1.20;;
21822;SDS011;11074;48.596;9.238;2023-07-16T01:58:14;2.03;;;1.20;;
21822;SDS011;11074;48.596;9.238;2023-07-16T02:00:40;1.65;;;0.95;;
21822;SDS011;11074;48.596;9.238;2023-07-16T02:03:06;1.10;;;0.90;;
21822;SDS011;11074;48.596;9.238;2023-07-16T02:05:31;1.98;;;1.02;;
21822;SDS011;11074;48.596;9.238;2023-07-16T02:07:57;4.18;;;1.10;;
21822;SDS011;11074;48.596;9.238;2023-07-16T02:10:23;2.25;;;1.00;;
21822;SDS011;11074;48.596;9.238;2023-07-16T02:12:48;1.40;;;0.95;;
21822;SDS011;11074;48.596;9.238;2023-07-16T02:15:14;1.83;;;1.10;;
21822;SDS011;11074;48.596;9.238;2023-07-16T02:17:40;2.00;;;0.85;;
21822;SDS011;11074;48.596;9.238;2023-07-16T02:20:06;1.40;;;0.77;;
21822;SDS011;11074;48.596;9.238;2023-07-16T02:22:34;1.27;;;0.85;;
21822;SDS011;11074;48.596;9.238;2023-07-16T02:25:01;1.00;;;0.80;;
21822;SDS011;11074;48.596;9.238;2023-07-16T02:27:27;1.35;;;1.00;;
21822;SDS011;11074;48.596;9.238;2023-07-16T02:29:53;3.47;;;0.90;;
21822;SDS011;11074;48.596;9.238;2023-07-16T02:32:19;1.10;;;1.00;;
21822;SDS011;11074;48.596;9.238;2023-07-16T02:34:45;2.70;;;1.20;;
21822;SDS011;11074;48.596;9.238;2023-07-16T02:37:11;1.58;;;0.90;;
21822;SDS011;11074;48.596;9.238;2023-07-16T02:39:38;3.22;;;1.42;;
21822;SDS011;11074;48.596;9.238;2023-07-16T02:42:07;5.07;;;1.00;;
21822;SDS011;11074;48.596;9.238;2023-07-16T02:44:33;2.30;;;1.05;;
21822;SDS011;11074;48.596;9.238;2023-07-16T02:47:03;3.45;;;1.10;;
21822;SDS011;11074;48.596;9.238;2023-07-16T02:49:29;1.70;;;1.00;;
21822;SDS011;11074;48.596;9.238;2023-07-16T02:51:54;3.65;;;1.00;;
21822;SDS011;11074;48.596;9.238;2023-07-16T02:54:20;2.38;;;0.90;;
21822;SDS011;11074;48.596;9.238;2023-07-16T02:56:46;2.35;;;0.80;;
21822;SDS011;11074;48.596;9.238;2023-07-16T02:59:12;2.42;;;1.33;;
21822;SDS011;11074;48.596;9.238;2023-07-16T03:01:38;4.03;;;1.20;;
21822;SDS011;11074;48.596;9.238;2023-07-16T03:04:03;3.38;;;1.02;;
21822;SDS011;11074;48.596;9.238;2023-07-16T03:06:29;1.23;;;1.00;;
21822;SDS011;11074;48.596;9.238;2023-07-16T03:08:55;1.83;;;1.02;;
21822;SDS011;11074;48.596;9.238;2023-07-16T03:11:21;4.75;;;1.25;;
21822;SDS011;11074;48.596;9.238;2023-07-16T03:13:47;3.45;;;1.13;;
21822;SDS011;11074;48.596;9.238;2023-07-16T03:16:14;4.57;;;1.00;;
21822;SDS011;11074;48.596;9.238;2023-07-16T03:18:39;2.60;;;0.90;;
21822;SDS011;11074;48.596;9.238;2023-07-16T03:21:05;1.88;;;1.02;;
21822;SDS011;11074;48.596;9.238;2023-07-16T03:23:31;4.20;;;1.08;;
21822;SDS011;11074;48.596;9.238;2023-07-16T03:25:57;2.95;;;1.23;;
21822;SDS011;11074;48.596;9.238;2023-07-16T03:28:22;5.18;;;1.20;;
21822;SDS011;11074;48.596;9.238;2023-07-16T03:30:49;2.42;;;1.20;;
21822;SDS011;11074;48.596;9.238;2023-07-16T03:33:16;2.33;;;1.20;;
21822;SDS011;11074;48.596;9.238;2023-07-16T03:35:42;3.40;;;1.50;;
21822;SDS011;11074;48.596;9.238;2023-07-16T03:38:10;2.05;;;1.00;;
21822;SDS011;11074;48.596;9.238;2023-07-16T03:40:36;1.10;;;1.00;;
21822;SDS011;11074;48.596;9.238;2023-07-16T03:43:03;3.10;;;1.20;;
21822;SDS011;11074;48.596;9.238;2023-07-16T03:45:29;2.55;;;1.25;;
21822;SDS011;11074;48.596;9.238;2023-07-16T03:47:54;2.63;;;1.30;;
21822;SDS011;11074;48.596;9.238;2023-07-16T03:50:20;2.42;;;1.10;;
21822;SDS011;11074;48.596;9.238;2023-07-16T03:52:46;2.63;;;1.20;;
21822;SDS011;11074;48.596;9.238;2023-07-16T03:55:13;7.13;;;1.23;;
21822;SDS011;11074;48.596;9.238;2023-07-16T03:57:38;3.85;;;1.20;;
21822;SDS011;11074;48.596;9.238;2023-07-16T04:00:05;1.83;;;1.00;;
21822;SDS011;11074;48.596;9.238;2023-07-16T04:02:34;4.43;;;1.10;;
21822;SDS011;11074;48.596;9.238;2023-07-16T04:05:00;2.80;;;1.30;;
21822;SDS011;11074;48.596;9.238;2023-07-16T04:07:26;4.90;;;1.30;;
21822;SDS011;11074;48.596;9.238;2023-07-16T04:09:52;2.30;;;1.23;;
21822;SDS011;11074;48.596;9.238;2023-07-16T04:12:17;3.80;;;1.00;;
21822;SDS011;11074;48.596;9.238;2023-07-16T04:14:43;4.32;;;1.05;;
21822;SDS011;11074;48.596;9.238;2023-07-16T04:17:09;2.17;;;1.20;;
21822;SDS011;11074;48.596;9.238;2023-07-16T04:19:35;2.25;;;1.10;;
21822;SDS011;11074;48.596;9.238;2023-07-16T04:22:00;3.40;;;1.30;;
21822;SDS011;11074;48.596;9.238;2023-07-16T04:24:26;2.10;;;1.23;;
21822;SDS011;11074;48.596;9.238;2023-07-16T04:26:53;3.00;;;1.00;;
21822;SDS011;11074;48.596;9.238;2023-07-16T04:29:19;4.85;;;1.48;;
21822;SDS011;11074;48.596;9.238;2023-07-16T04:31:44;3.08;;;1.20;;
21822;SDS011;11074;48.596;9.238;2023-07-16T04:34:10;4.35;;;1.00;;
21822;SDS011;11074;48.596;9.238;2023-07-16T04:36:36;4.60;;;1.00;;
21822;SDS011;11074;48.596;9.238;2023-07-16T04:39:03;2.88;;;1.00;;
21822;SDS011;11074;48.596;9.238;2023-07-16T04:41:29;3.28;;;1.20;;
21822;SDS011;11074;48.596;9.238;2023-07-16T04:43:56;3.53;;;1.20;;
21822;SDS011;11074;48.596;9.238;2023-07-16T04:46:21;2.83;;;1.17;;
21822;SDS011;11074;48.596;9.238;2023-07-16T04:48:47;5.22;;;1.10;;
21822;SDS011;11074;48.596;9.238;2023-07-16T04:51:14;5.38;;;1.10;;
21822;SDS011;11074;48.596;9.238;2023-07-16T04:53:39;2.63;;;1.27;;
21822;SDS011;11074;48.596;9.238;2023-07-16T04:56:10;6.53;;;1.23;;
21822;SDS011;11074;48.596;9.238;2023-07-16T04:58:41;2.45;;;1.08;;
21822;SDS011;11074;48.596;9.238;2023-07-16T05:01:07;3.85;;;0.90;;
21822;SDS011;11074;48.596;9.238;2023-07-16T05:03:34;3.67;;;1.23;;
21822;SDS011;11074;48.596;9.238;2023-07-16T05:06:01;2.65;;;1.00;;
21822;SDS011;11074;48.596;9.238;2023-07-16T05:08:27;4.90;;;1.10;;
21822;SDS011;11074;48.596;9.238;2023-07-16T05:10:53;2.50;;;1.15;;
21822;SDS011;11074;48.596;9.238;2023-07-16T05:13:19;2.08;;;1.23;;
21822;SDS011;11074;48.596;9.238;2023-07-16T05:15:44;2.88;;;1.33;;
21822;SDS011;11074;48.596;9.238;2023-07-16T05:18:10;4.65;;;1.33;;
21822;SDS011;11074;48.596;9.238;2023-07-16T05:20:36;2.05;;;1.13;;
21822;SDS011;11074;48.596;9.238;2023-07-16T05:23:01;3.35;;;1.30;;
21822;SDS011;11074;48.596;9.238;2023-07-16T05:25:30;2.35;;;1.08;;
21822;SDS011;11074;48.596;9.238;2023-07-16T05:27:56;5.35;;;1.30;;
21822;SDS011;11074;48.596;9.238;2023-07-16T05:30:21;3.55;;;1.20;;
21822;SDS011;11074;48.596;9.238;2023-07-16T05:32:47;3.47;;;1.33;;
21822;SDS011;11074;48.596;9.238;2023-07-16T05:35:13;2.42;;;1.20;;
21822;SDS011;11074;48.596;9.238;2023-07-16T05:37:42;6.18;;;1.23;;
21822;SDS011;11074;48.596;9.238;2023-07-16T05:40:08;4.65;;;1.20;;
21822;SDS011;11074;48.596;9.238;2023-07-16T05:42:37;3.88;;;1.10;;
21822;SDS011;11074;48.596;9.238;2023-07-16T05:45:02;2.40;;;1.17;;
21822;SDS011;11074;48.596;9.238;2023-07-16T05:47:29;2.45;;;1.20;;
21822;SDS011;11074;48.596;9.238;2023-07-16T05:49:55;4.57;;;1.52;;
21822;SDS011;11074;48.596;9.238;2023-07-16T05:52:23;5.10;;;1.55;;
21822;SDS011;11074;48.596;9.238;2023-07-16T05:54:48;2.88;;;1.13;;
21822;SDS011;11074;48.596;9.238;2023-07-16T05:57:14;4.57;;;1.25;;
21822;SDS011;11074;48.596;9.238;2023-07-16T05:59:40;5.00;;;1.35;;
21822;SDS011;11074;48.596;9.238;2023-07-16T06:02:05;5.70;;;1.50;;
21822;SDS011;11074;48.596;9.238;2023-07-16T06:04:31;3.03;;;1.20;;
21822;SDS011;11074;48.596;9.238;2023-07-16T06:06:59;2.97;;;1.10;;
21822;SDS011;11074;48.596;9.238;2023-07-16T06:09:25;2.83;;;1.13;;
21822;SDS011;11074;48.596;9.238;2023-07-16T06:11:50;3.38;;;1.20;;
21822;SDS011;11074;48.596;9.238;2023-07-16T06:14:16;4.07;;;1.20;;
21822;SDS011;11074;48.596;9.238;2023-07-16T06:16:42;2.10;;;1.20;;
21822;SDS011;11074;48.596;9.238;2023-07-16T06:19:08;5.32;;;1.38;;
21822;SDS011;11074;48.596;9.238;2023-07-16T06:21:33;3.00;;;1.20;;
21822;SDS011;11074;48.596;9.238;2023-07-16T06:23:59;7.28;;;1.45;;
21822;SDS011;11074;48.596;9.238;2023-07-16T06:26:25;2.90;;;1.27;;
21822;SDS011;11074;48.596;9.238;2023-07-16T06:28:51;3.65;;;1.58;;
21822;SDS011;11074;48.596;9.238;2023-07-16T06:31:17;4.75;;;1.27;;
21822;SDS011;11074;48.596;9.238;2023-07-16T06:33:43;5.22;;;1.38;;
21822;SDS011;11074;48.596;9.238;2023-07-16T06:36:11;3.92;;;1.30;;
21822;SDS011;11074;48.596;9.238;2023-07-16T06:38:38;3.22;;;1.60;;
21822;SDS011;11074;48.596;9.238;2023-07-16T06:41:04;7.35;;;1.60;;
21822;SDS011;11074;48.596;9.238;2023-07-16T06:43:29;2.60;;;1.30;;
21822;SDS011;11074;48.596;9.238;2023-07-16T06:45:55;5.18;;;1.42;;
21822;SDS011;11074;48.596;9.238;2023-07-16T06:48:22;3.58;;;1.27;;
21822;SDS011;11074;48.596;9.238;2023-07-16T06:50:51;4.90;;;1.38;;
21822;SDS011;11074;48.596;9.238;2023-07-16T06:53:17;2.97;;;1.40;;
21822;SDS011;11074;48.596;9.238;2023-07-16T06:55:43;2.83;;;1.13;;
21822;SDS011;11074;48.596;9.238;2023-07-16T06:58:13;3.08;;;1.38;;
21822;SDS011;11074;48.596;9.238;2023-07-16T07:00:39;3.80;;;1.60;;
21822;SDS011;11074;48.596;9.238;2023-07-16T07:03:05;5.28;;;1.60;;
21822;SDS011;11074;48.596;9.238;2023-07-16T07:05:31;2.70;;;1.20;;
21822;SDS011;11074;48.596;9.238;2023-07-16T07:07:57;5.90;;;1.50;;
21822;SDS011;11074;48.596;9.238;2023-07-16T07:10:23;3.67;;;1.50;;
21822;SDS011;11074;48.596;9.238;2023-07-16T07:12:48;3.10;;;1.30;;
21822;SDS011;11074;48.596;9.238;2023-07-16T07:15:14;2.22;;;1.00;;
21822;SDS011;11074;48.596;9.238;2023-07-16T07:17:40;4.35;;;1.60;;
21822;SDS011;11074;48.596;9.238;2023-07-16T07:20:07;2.50;;;1.15;;
21822;SDS011;11074;48.596;9.238;2023-07-16T07:22:34;2.85;;;1.50;;
21822;SDS011;11074;48.596;9.238;2023-07-16T07:25:00;3.30;;;1.30;;
21822;SDS011;11074;48.596;9.238;2023-07-16T07:27:26;4.10;;;1.48;;
21822;SDS011;11074;48.596;9.238;2023-07-16T07:29:52;5.53;;;1.50;;
21822;SDS011;11074;48.596;9.238;2023-07-16T07:32:21;4.18;;;1.52;;
21822;SDS011;11074;48.596;9.238;2023-07-16T07:34:47;4.55;;;1.50;;
21822;SDS011;11074;48.596;9.238;2023-07-16T07:37:13;5.55;;;1.58;;
21822;SDS011;11074;48.596;9.238;2023-07-16T07:39:39;4.00;;;1.20;;
21822;SDS011;11074;48.596;9.238;2023-07-16T07:42:05;3.83;;;1.50;;
21822;SDS011;11074;48.596;9.238;2023-07-16T07:44:31;3.53;;;1.30;;
21822;SDS011;11074;48.596;9.238;2023-07-16T07:46:57;4.22;;;1.40;;
21822;SDS011;11074;48.596;9.238;2023-07-16T07:49:23;3.50;;;1.10;;
21822;SDS011;11074;48.596;9.238;2023-07-16T07:51:49;3.25;;;1.35;;
21822;SDS011;11074;48.596;9.238;2023-07-16T07:54:15;5.10;;;1.70;;
21822;SDS011;11074;48.596;9.238;2023-07-16T07:56:41;4.13;;;1.40;;
21822;SDS011;11074;48.596;9.238;2023-07-16T07:59:07;2.47;;;1.10;;
21822;SDS011;11074;48.596;9.238;2023-07-16T08:01:33;4.43;;;1.83;;
21822;SDS011;11074;48.596;9.238;2023-07-16T08:03:58;4.22;;;1.38;;
21822;SDS011;11074;48.596;9.238;2023-07-16T08:06:25;2.78;;;1.27;;
21822;SDS011;11074;48.596;9.238;2023-07-16T08:08:51;5.32;;;1.48;;
21822;SDS011;11074;48.596;9.238;2023-07-16T08:11:17;4.15;;;1.30;;
21822;SDS011;11074;48.596;9.238;2023-07-16T08:13:43;3.40;;;1.30;;
21822;SDS011;11074;48.596;9.238;2023-07-16T08:16:08;4.88;;;1.65;;
21822;SDS011;11074;48.596;9.238;2023-07-16T08:18:34;2.35;;;1.40;;
21822;SDS011;11074;48.596;9.238;2023-07-16T08:21:00;7.10;;;1.33;;
21822;SDS011;11074;48.596;9.238;2023-07-16T08:23:26;4.00;;;1.35;;
21822;SDS011;11074;48.596;9.238;2023-07-16T08:25:51;3.25;;;1.52;;
21822;SDS011;11074;48.596;9.238;2023-07-16T08:28:17;6.35;;;2.13;;
21822;SDS011;11074;48.596;9.238;2023-07-16T08:30:45;4.40;;;1.73;;
21822;SDS011;11074;48.596;9.238;2023-07-16T08:33:12;4.53;;;2.03;;
21822;SDS011;11074;48.596;9.238;2023-07-16T08:35:39;3.00;;;1.23;;
21822;SDS011;11074;48.596;9.238;2023-07-16T08:38:06;4.78;;;1.30;;
21822;SDS011;11074;48.596;9.238;2023-07-16T08:40:38;3.35;;;1.20;;
21822;SDS011;11074;48.596;9.238;2023-07-16T08:43:05;3.72;;;1.50;;
21822;SDS011;11074;48.596;9.238;2023-07-16T08:45:38;2.72;;;1.25;;
21822;SDS011;11074;48.596;9.238;2023-07-16T08:48:06;4.10;;;1.50;;
21822;SDS011;11074;48.596;9.238;2023-07-16T08:50:33;4.25;;;1.90;;
21822;SDS011;11074;48.596;9.238;2023-07-16T08:53:01;4.25;;;1.95;;
21822;SDS011;11074;48.596;9.238;2023-07-16T08:55:30;3.22;;;1.25;;
21822;SDS011;11074;48.596;9.238;2023-07-16T08:57:57;3.05;;;1.40;;
21822;SDS011;11074;48.596;9.238;2023-07-16T09:00:23;2.78;;;1.55;;
21822;SDS011;11074;48.596;9.238;2023-07-16T09:02:54;2.75;;;1.35;;
21822;SDS011;11074;48.596;9.238;2023-07-16T09:05:20;2.10;;;1.20;;
21822;SDS011;11074;48.596;9.238;2023-07-16T09:07:47;2.45;;;1.38;;
21822;SDS011;11074;48.596;9.238;2023-07-16T09:10:13;3.45;;;1.25;;
21822;SDS011;11074;48.596;9.238;2023-07-16T09:12:43;3.25;;;1.50;;
21822;SDS011;11074;48.596;9.238;2023-07-16T09:15:11;3.00;;;1.30;;
21822;SDS011;11074;48.596;9.238;2023-07-16T09:17:41;3.00;;;1.20;;
21822;SDS011;11074;48.596;9.238;2023-07-16T09:20:07;3.17;;;1.52;;
21822;SDS011;11074;48.596;9.238;2023-07-16T09:22:34;4.20;;;1.50;;
21822;SDS011;11074;48.596;9.238;2023-07-16T09:25:00;3.75;;;1.15;;
21822;SDS011;11074;48.596;9.238;2023-07-16T09:27:30;4.65;;;1.58;;
21822;SDS011;11074;48.596;9.238;2023-07-16T09:29:56;2.55;;;1.50;;
21822;SDS011;11074;48.596;9.238;2023-07-16T09:32:32;2.88;;;1.25;;
21822;SDS011;11074;48.596;9.238;2023-07-16T09:35:10;2.47;;;1.35;;
21822;SDS011;11074;48.596;9.238;2023-07-16T09:37:38;3.33;;;1.25;;
21822;SDS011;11074;48.596;9.238;2023-07-16T09:40:05;3.00;;;1.40;;
21822;SDS011;11074;48.596;9.238;2023-07-16T09:42:37;2.95;;;1.27;;
21822;SDS011;11074;48.596;9.238;2023-07-16T09:45:06;2.30;;;1.45;;
21822;SDS011;11074;48.596;9.238;2023-07-16T09:47:33;4.45;;;1.50;;
21822;SDS011;11074;48.596;9.238;2023-07-16T09:50:02;3.50;;;1.30;;
21822;SDS011;11074;48.596;9.238;2023-07-16T09:52:30;3.20;;;1.48;;
21822;SDS011;11074;48.596;9.238;2023-07-16T09:54:58;3.38;;;1.40;;
21822;SDS011;11074;48.596;9.238;2023-07-16T09:57:28;2.65;;;1.48;;
21822;SDS011;11074;48.596;9.238;2023-07-16T10:00:02;2.72;;;1.38;;
21822;SDS011;11074;48.596;9.238;2023-07-16T10:02:34;2.75;;;1.35;;
21822;SDS011;11074;48.596;9.238;2023-07-16T10:05:20;3.20;;;1.42;;
21822;SDS011;11074;48.596;9.238;2023-07-16T10:07:54;3.22;;;1.40;;
21822;SDS011;11074;48.596;9.238;2023-07-16T10:10:26;2.63;;;1.40;;
21822;SDS011;11074;48.596;9.238;2023-07-16T10:13:12;5.57;;;1.52;;
21822;SDS011;11074;48.596;9.238;2023-07-16T10:15:38;3.90;;;1.30;;
21822;SDS011;11074;48.596;9.238;2023-07-16T10:18:07;2.35;;;1.35;;
21822;SDS011;11074;48.596;9.238;2023-07-16T10:20:34;3.58;;;1.55;;
21822;SDS011;11074;48.596;9.238;2023-07-16T10:25:56;3.15;;;1.55;;
21822;SDS011;11074;48.596;9.238;2023-07-16T10:28:30;3.50;;;1.23;;
21822;SDS011;11074;48.596;9.238;2023-07-16T10:30:57;3.67;;;1.60;;
21822;SDS011;11074;48.596;9.238;2023-07-16T10:33:23;2.25;;;1.20;;
21822;SDS011;11074;48.596;9.238;2023-07-16T10:35:49;4.32;;;1.63;;
21822;SDS011;11074;48.596;9.238;2023-07-16T10:38:15;2.78;;;1.40;;
21822;SDS011;11074;48.596;9.238;2023-07-16T10:40:41;4.00;;;1.42;;
21822;SDS011;11074;48.596;9.238;2023-07-16T10:43:09;3.33;;;1.58;;
21822;SDS011;11074;48.596;9.238;2023-07-16T10:45:35;3.15;;;1.30;;
21822;SDS011;11074;48.596;9.238;2023-07-16T10:48:01;3.20;;;1.98;;
21822;SDS011;11074;48.596;9.238;2023-07-16T10:50:27;4.15;;;1.60;;
21822;SDS011;11074;48.596;9.238;2023-07-16T10:52:54;3.83;;;1.60;;
21822;SDS011;11074;48.596;9.238;2023-07-16T10:55:23;2.35;;;1.30;;
21822;SDS011;11074;48.596;9.238;2023-07-16T10:57:52;3.60;;;1.70;;
21822;SDS011;11074;48.596;9.238;2023-07-16T11:00:19;3.08;;;1.30;;
21822;SDS011;11074;48.596;9.238;2023-07-16T11:02:47;5.38;;;1.65;;
21822;SDS011;11074;48.596;9.238;2023-07-16T11:05:15;4.97;;;1.50;;
21822;SDS011;11074;48.596;9.238;2023-07-16T11:07:47;3.42;;;1.58;;
21822;SDS011;11074;48.596;9.238;2023-07-16T11:10:17;2.55;;;1.55;;
21822;SDS011;11074;48.596;9.238;2023-07-16T11:12:43;3.42;;;1.42;;
21822;SDS011;11074;48.596;9.238;2023-07-16T11:15:10;5.28;;;1.27;;
21822;SDS011;11074;48.596;9.238;2023-07-16T11:17:38;3.63;;;1.20;;
21822;SDS011;11074;48.596;9.238;2023-07-16T11:20:06;3.88;;;1.23;;
21822;SDS011;11074;48.596;9.238;2023-07-16T11:22:36;4.65;;;1.60;;
21822;SDS011;11074;48.596;9.238;2023-07-16T11:25:04;4.07;;;1.58;;
21822;SDS011;11074;48.596;9.238;2023-07-16T11:27:36;2.30;;;1.30;;
21822;SDS011;11074;48.596;9.238;2023-07-16T11:30:07;4.05;;;1.50;;
21822;SDS011;11074;48.596;9.238;2023-07-16T11:32:34;3.85;;;1.40;;
21822;SDS011;11074;48.596;9.238;2023-07-16T11:35:08;3.50;;;1.38;;
21822;SDS011;11074;48.596;9.238;2023-07-16T11:37:42;2.97;;;1.33;;
21822;SDS011;11074;48.596;9.238;2023-07-16T11:40:09;3.47;;;1.70;;
21822;SDS011;11074;48.596;9.238;2023-07-16T11:42:39;2.58;;;1.40;;
21822;SDS011;11074;48.596;9.238;2023-07-16T11:47:53;7.32;;;1.50;;
21822;SDS011;11074;48.596;9.238;2023-07-16T11:50:19;5.35;;;1.40;;
21822;SDS011;11074;48.596;9.238;2023-07-16T11:52:52;4.35;;;1.38;;
21822;SDS011;11074;48.596;9.238;2023-07-16T11:55:25;4.60;;;1.65;;
21822;SDS011;11074;48.596;9.238;2023-07-16T11:57:50;2.85;;;1.30;;
21822;SDS011;11074;48.596;9.238;2023-07-16T12:00:16;3.70;;;1.55;;
21822;SDS011;11074;48.596;9.238;2023-07-16T12:02:45;4.00;;;1.45;;
21822;SDS011;11074;48.596;9.238;2023-07-16T12:05:16;3.75;;;1.35;;
21822;SDS011;11074;48.596;9.238;2023-07-16T12:07:46;4.22;;;1.52;;
21822;SDS011;11074;48.596;9.238;2023-07-16T12:10:12;3.67;;;1.52;;
21822;SDS011;11074;48.596;9.238;2023-07-16T12:12:38;2.40;;;1.20;;
21822;SDS011;11074;48.596;9.238;2023-07-16T12:15:04;4.40;;;1.60;;
21822;SDS011;11074;48.596;9.238;2023-07-16T12:17:31;3.10;;;1.33;;
21822;SDS011;11074;48.596;9.238;2023-07-16T12:19:57;3.20;;;1.50;;
21822;SDS011;11074;48.596;9.238;2023-07-16T12:22:22;3.88;;;1.85;;
21822;SDS011;11074;48.596;9.238;2023-07-16T12:24:49;2.97;;;1.40;;
21822;SDS011;11074;48.596;9.238;2023-07-16T12:27:15;4.05;;;1.92;;
21822;SDS011;11074;48.596;9.238;2023-07-16T12:29:43;3.47;;;1.60;;
21822;SDS011;11074;48.596;9.238;2023-07-16T12:32:09;3.70;;;1.35;;
21822;SDS011;11074;48.596;9.238;2023-07-16T12:34:35;4.85;;;1.55;;
21822;SDS011;11074;48.596;9.238;2023-07-16T12:37:01;3.50;;;1.27;;
21822;SDS011;11074;48.596;9.238;2023-07-16T12:39:28;3.50;;;1.52;;
21822;SDS011;11074;48.596;9.238;2023-07-16T12:41:54;2.22;;;1.25;;
21822;SDS011;11074;48.596;9.238;2023-07-16T12:44:19;3.88;;;1.45;;
21822;SDS011;11074;48.596;9.238;2023-07-16T12:46:45;2.65;;;1.50;;
21822;SDS011;11074;48.596;9.238;2023-07-16T12:49:11;2.60;;;1.50;;
21822;SDS011;11074;48.596;9.238;2023-07-16T12:51:37;2.60;;;1.50;;
21822;SDS011;11074;48.596;9.238;2023-07-16T12:54:02;4.03;;;1.40;;
21822;SDS011;11074;48.596;9.238;2023-07-16T12:56:28;3.42;;;1.70;;
21822;SDS011;11074;48.596;9.238;2023-07-16T12:58:55;3.58;;;1.40;;
21822;SDS011;11074;48.596;9.238;2023-07-16T13:01:21;3.13;;;1.50;;
21822;SDS011;11074;48.596;9.238;2023-07-16T13:03:47;2.97;;;1.58;;
21822;SDS011;11074;48.596;9.238;2023-07-16T13:06:12;5.10;;;1.63;;
21822;SDS011;11074;48.596;9.238;2023-07-16T13:08:38;3.13;;;1.30;;
21822;SDS011;11074;48.596;9.238;2023-07-16T13:11:04;4.57;;;1.50;;
21822;SDS011;11074;48.596;9.238;2023-07-16T13:13:29;1.77;;;1.20;;
21822;SDS011;11074;48.596;9.238;2023-07-16T13:15:55;5.43;;;1.20;;
21822;SDS011;11074;48.596;9.238;2023-07-16T13:18:21;2.45;;;1.20;;
21822;SDS011;11074;48.596;9.238;2023-07-16T13:20:46;3.35;;;1.50;;
21822;SDS011;11074;48.596;9.238;2023-07-16T13:23:12;2.33;;;1.20;;
21822;SDS011;11074;48.596;9.238;2023-07-16T13:25:38;3.65;;;1.55;;
21822;SDS011;11074;48.596;9.238;2023-07-16T13:28:04;2.63;;;1.35;;
21822;SDS011;11074;48.596;9.238;2023-07-16T13:30:31;2.63;;;1.40;;
21822;SDS011;11074;48.596;9.238;2023-07-16T13:32:57;2.80;;;1.60;;
21822;SDS011;11074;48.596;9.238;2023-07-16T13:35:23;4.70;;;1.27;;
21822;SDS011;11074;48.596;9.238;2023-07-16T13:37:48;3.45;;;1.60;;
21822;SDS011;11074;48.596;9.238;2023-07-16T13:40:14;4.25;;;1.60;;
21822;SDS011;11074;48.596;9.238;2023-07-16T13:42:41;3.67;;;1.75;;
21822;SDS011;11074;48.596;9.238;2023-07-16T13:45:07;2.13;;;1.30;;
21822;SDS011;11074;48.596;9.238;2023-07-16T13:47:33;6.18;;;1.75;;
21822;SDS011;11074;48.596;9.238;2023-07-16T13:49:59;3.40;;;1.70;;
21822;SDS011;11074;48.596;9.238;2023-07-16T13:52:25;2.63;;;1.48;;
21822;SDS011;11074;48.596;9.238;2023-07-16T13:54:50;3.03;;;1.45;;
21822;SDS011;11074;48.596;9.238;2023-07-16T13:57:16;3.83;;;1.70;;
21822;SDS011;11074;48.596;9.238;2023-07-16T13:59:42;5.07;;;1.80;;
21822;SDS011;11074;48.596;9.238;2023-07-16T14:02:07;3.70;;;1.60;;
21822;SDS011;11074;48.596;9.238;2023-07-16T14:04:33;3.40;;;1.50;;
21822;SDS011;11074;48.596;9.238;2023-07-16T14:06:59;2.33;;;1.40;;
21822;SDS011;11074;48.596;9.238;2023-07-16T14:09:25;3.53;;;1.52;;
21822;SDS011;11074;48.596;9.238;2023-07-16T14:11:51;3.35;;;1.60;;
21822;SDS011;11074;48.596;9.238;2023-07-16T14:14:17;4.65;;;1.40;;
21822;SDS011;11074;48.596;9.238;2023-07-16T14:16:44;4.90;;;1.65;;
21822;SDS011;11074;48.596;9.238;2023-07-16T14:19:10;4.50;;;2.00;;
21822;SDS011;11074;48.596;9.238;2023-07-16T14:21:37;3.30;;;1.67;;
21822;SDS011;11074;48.596;9.238;2023-07-16T14:24:03;2.20;;;1.33;;
21822;SDS011;11074;48.596;9.238;2023-07-16T14:26:30;4.18;;;1.60;;
21822;SDS011;11074;48.596;9.238;2023-07-16T14:28:55;3.58;;;1.60;;
21822;SDS011;11074;48.596;9.238;2023-07-16T14:31:22;4.03;;;1.70;;
21822;SDS011;11074;48.596;9.238;2023-07-16T14:33:48;3.33;;;1.55;;
21822;SDS011;11074;48.596;9.238;2023-07-16T14:36:13;3.55;;;1.70;;
21822;SDS011;11074;48.596;9.238;2023-07-16T14:38:39;3.55;;;1.52;;
21822;SDS011;11074;48.596;9.238;2023-07-16T14:41:05;2.83;;;1.35;;
21822;SDS011;11074;48.596;9.238;2023-07-16T14:43:32;5.70;;;1.67;;
21822;SDS011;11074;48.596;9.238;2023-07-16T14:45:58;3.30;;;1.73;;
21822;SDS011;11074;48.596;9.238;2023-07-16T14:48:24;4.90;;;1.50;;
21822;SDS011;11074;48.596;9.238;2023-07-16T14:50:52;3.60;;;1.50;;
21822;SDS011;11074;48.596;9.238;2023-07-16T14:53:18;4.18;;;1.60;;
21822;SDS011;11074;48.596;9.238;2023-07-16T14:55:48;3.38;;;1.70;;
21822;SDS011;11074;48.596;9.238;2023-07-16T14:58:17;4.68;;;1.42;;